Time;durP1;ratioP1;P1;durP2;ratioP2;P2;SDS_P1;SDS_P2;PMS_P1;PMS_P2;Temp;Humidity;BMP_temperature;BMP_pressure;BME280_temperature;BME280_humidity;BME280_pressure;Samples;Min_cycle;Max_cycle;Signal;HPM_P1;HPM_P2
2022/11/05 00:09:28;;;;;;;14.60;9.40;;;9.50;99.90;;;;;;5005359;28;20046;-75
2022/11/05 00:16:58;;;;;;;19.45;9.55;;;9.00;99.90;;;;;;5019557;28;20042;-74
2022/11/05 00:19:24;;;;;;;15.15;9.60;;;9.00;99.90;;;;;;5008982;28;20381;-74
2022/11/05 00:27:19;;;;;;;18.85;10.77;;;9.00;99.90;;;;;;5004075;28;20046;-73
2022/11/05 00:29:44;;;;;;;18.25;9.40;;;8.90;99.90;;;;;;5006802;28;20068;-74
2022/11/05 00:32:10;;;;;;;18.75;10.27;;;8.80;99.90;;;;;;4981278;28;20045;-74
2022/11/05 00:34:36;;;;;;;15.27;10.10;;;8.90;99.90;;;;;;5006362;28;20053;-74
2022/11/05 00:37:01;;;;;;;17.95;10.68;;;8.90;99.90;;;;;;4990644;28;20077;-75
2022/11/05 00:39:27;;;;;;;17.85;9.98;;;8.80;99.90;;;;;;5007495;28;20128;-74
2022/11/05 00:50:09;;;;;;;17.95;10.00;;;8.60;99.90;;;;;;5011118;28;20042;-74
2022/11/05 00:55:27;;;;;;;16.85;9.38;;;8.60;99.90;;;;;;5007702;28;20049;-74
2022/11/05 00:57:54;;;;;;;18.88;10.82;;;8.60;99.90;;;;;;5025892;28;20050;-74
2022/11/05 01:00:20;;;;;;;18.55;10.95;;;8.60;99.90;;;;;;5008760;28;20054;-74
2022/11/05 01:02:46;;;;;;;19.35;11.45;;;8.60;99.90;;;;;;5010227;28;20104;-74
2022/11/05 01:05:12;;;;;;;18.10;10.05;;;8.50;99.90;;;;;;5007945;28;20034;-73
2022/11/05 01:07:39;;;;;;;21.63;11.90;;;8.70;99.90;;;;;;5008689;28;20432;-73
2022/11/05 01:10:05;;;;;;;19.95;10.98;;;8.60;99.90;;;;;;5006713;28;20077;-74
2022/11/05 01:12:31;;;;;;;23.90;11.55;;;8.60;99.90;;;;;;4994816;28;20049;-74
2022/11/05 01:14:57;;;;;;;19.05;10.13;;;8.50;99.90;;;;;;5008364;28;20484;-73
2022/11/05 01:17:22;;;;;;;24.17;11.68;;;8.50;99.90;;;;;;5008490;28;20108;-74
2022/11/05 01:19:48;;;;;;;21.95;11.73;;;8.60;99.90;;;;;;5007357;28;20045;-74
2022/11/05 01:22:14;;;;;;;17.73;9.52;;;8.50;99.90;;;;;;4991828;28;20065;-73
2022/11/05 01:24:39;;;;;;;23.63;12.02;;;8.50;99.90;;;;;;5008527;28;20042;-74
2022/11/05 01:27:05;;;;;;;19.52;11.18;;;8.50;99.90;;;;;;4988184;28;20054;-74
2022/11/05 01:29:31;;;;;;;20.63;11.75;;;8.50;99.90;;;;;;4996568;28;20061;-74
2022/11/05 01:31:57;;;;;;;19.98;11.48;;;8.50;99.90;;;;;;5010906;28;20049;-75
2022/11/05 01:34:22;;;;;;;21.85;10.50;;;8.50;99.90;;;;;;5010601;28;20467;-75
2022/11/05 01:36:48;;;;;;;21.23;11.73;;;8.50;99.90;;;;;;5007044;28;20052;-73
2022/11/05 01:39:14;;;;;;;23.10;11.85;;;8.40;99.90;;;;;;5006296;28;20049;-74
2022/11/05 01:41:40;;;;;;;18.83;11.23;;;8.40;99.90;;;;;;4991947;28;20053;-74
2022/11/05 01:44:46;;;;;;;22.80;11.30;;;8.40;99.90;;;;;;5005681;28;21688;-73
2022/11/05 01:47:35;;;;;;;17.45;11.25;;;8.50;99.90;;;;;;5007725;28;20049;-73
2022/11/05 01:50:22;;;;;;;19.65;11.18;;;8.50;99.90;;;;;;5003854;28;20090;-74
2022/11/05 01:52:48;;;;;;;20.08;10.52;;;8.50;99.90;;;;;;5006297;28;20574;-73
2022/11/05 01:55:15;;;;;;;20.88;10.45;;;8.50;99.90;;;;;;5006772;28;20613;-74
2022/11/05 01:57:41;;;;;;;23.42;12.02;;;8.40;99.90;;;;;;5005820;28;20045;-74
2022/11/05 02:00:07;;;;;;;20.48;10.07;;;8.30;99.90;;;;;;5006313;28;20056;-74
2022/11/05 02:02:33;;;;;;;21.00;10.27;;;8.30;99.90;;;;;;5005288;28;20800;-75
2022/11/05 02:05:00;;;;;;;21.20;10.45;;;8.40;99.90;;;;;;5022931;28;20049;-75
2022/11/05 02:07:26;;;;;;;17.55;10.30;;;8.50;99.90;;;;;;4989311;28;20148;-75
2022/11/05 02:10:01;;;;;;;20.10;10.15;;;8.40;99.90;;;;;;5002650;28;20123;-75
2022/11/05 02:12:27;;;;;;;17.95;10.00;;;8.50;99.90;;;;;;5005354;28;21295;-76
2022/11/05 02:14:54;;;;;;;17.77;10.70;;;8.40;99.90;;;;;;4987925;28;20065;-75
2022/11/05 02:17:38;;;;;;;16.70;9.73;;;8.40;99.90;;;;;;5005060;28;20132;-74
2022/11/05 02:20:28;;;;;;;21.45;11.35;;;8.40;99.90;;;;;;5003002;28;20085;-75
2022/11/05 02:23:27;;;;;;;17.75;10.13;;;8.40;99.90;;;;;;5023339;28;20770;-73
2022/11/05 02:26:44;;;;;;;20.45;10.73;;;8.40;99.90;;;;;;5005229;28;20049;-74
2022/11/05 02:29:34;;;;;;;18.43;10.03;;;8.40;99.90;;;;;;5007155;28;20081;-74
2022/11/05 02:32:15;;;;;;;18.50;10.20;;;8.30;99.90;;;;;;5005363;28;20298;-74
2022/11/05 02:34:56;;;;;;;18.15;10.10;;;8.30;99.90;;;;;;5002878;28;20049;-73
2022/11/05 02:37:38;;;;;;;17.52;9.73;;;8.30;99.90;;;;;;5004090;28;20668;-75
2022/11/05 02:40:16;;;;;;;17.55;10.93;;;8.20;99.90;;;;;;5004069;28;20143;-75
2022/11/05 02:43:02;;;;;;;16.92;9.85;;;8.20;99.90;;;;;;5003768;28;20058;-75
2022/11/05 02:45:58;;;;;;;17.25;9.63;;;8.20;99.90;;;;;;5003407;28;20054;-75
2022/11/05 02:48:51;;;;;;;21.98;10.00;;;8.20;99.90;;;;;;5004484;28;20046;-74
2022/11/05 02:51:38;;;;;;;25.65;10.05;;;8.30;99.90;;;;;;5003812;28;20103;-74
2022/11/05 02:54:15;;;;;;;16.83;9.85;;;8.10;99.90;;;;;;4975507;28;20108;-74
2022/11/05 02:56:43;;;;;;;16.08;9.48;;;8.10;99.90;;;;;;5003173;28;20561;-74
2022/11/05 02:59:08;;;;;;;17.98;10.20;;;8.20;99.90;;;;;;5003266;28;21911;-74
2022/11/05 03:01:34;;;;;;;17.25;10.20;;;8.20;99.90;;;;;;4986968;28;20049;-74
2022/11/05 03:04:00;;;;;;;18.63;9.02;;;8.10;99.90;;;;;;5003505;28;20383;-75
2022/11/05 03:07:03;;;;;;;24.48;10.15;;;8.10;99.90;;;;;;4991865;28;20054;-74
2022/11/05 03:09:44;;;;;;;18.33;9.00;;;8.10;99.90;;;;;;5003634;28;20053;-75
2022/11/05 03:12:34;;;;;;;19.05;10.15;;;8.10;99.90;;;;;;5019225;28;20061;-74
2022/11/05 03:15:43;;;;;;;21.55;10.85;;;8.10;99.90;;;;;;5020724;28;20501;-74
2022/11/05 03:18:18;;;;;;;21.67;9.88;;;8.00;99.90;;;;;;4954039;28;20050;-74
2022/11/05 03:21:09;;;;;;;19.95;10.40;;;8.00;99.90;;;;;;5001294;28;20058;-75
2022/11/05 03:23:44;;;;;;;22.00;8.73;;;8.00;99.90;;;;;;5002970;28;20061;-74
2022/11/05 03:26:17;;;;;;;16.42;9.35;;;7.90;99.90;;;;;;4975818;28;20049;-74
2022/11/05 03:28:50;;;;;;;22.80;9.93;;;7.90;99.90;;;;;;4977677;28;20049;-74
2022/11/05 03:31:16;;;;;;;17.10;10.00;;;7.90;99.90;;;;;;5003983;28;20056;-75
2022/11/05 03:33:42;;;;;;;20.08;9.40;;;7.90;99.90;;;;;;5005488;28;20049;-74
2022/11/05 03:36:12;;;;;;;20.38;8.88;;;7.80;99.90;;;;;;4976025;28;20046;-75
2022/11/05 03:38:41;;;;;;;20.85;8.70;;;7.90;99.90;;;;;;5003838;28;20148;-74
2022/11/05 03:41:08;;;;;;;19.60;9.30;;;7.90;99.90;;;;;;5003456;28;20373;-73
2022/11/05 03:43:38;;;;;;;16.83;8.88;;;7.80;99.90;;;;;;4991614;28;20049;-74
2022/11/05 03:46:14;;;;;;;18.08;9.45;;;7.90;99.90;;;;;;5007463;28;20046;-73
2022/11/05 03:48:51;;;;;;;16.55;9.25;;;7.90;99.90;;;;;;4994469;28;20045;-74
2022/11/05 03:51:52;;;;;;;19.15;8.82;;;7.80;99.90;;;;;;5005668;28;20047;-75
2022/11/05 03:54:17;;;;;;;19.80;8.82;;;7.80;99.90;;;;;;5000711;28;20053;-74
2022/11/05 03:57:01;;;;;;;19.25;8.52;;;7.80;99.90;;;;;;4990459;28;20057;-74
2022/11/05 03:59:28;;;;;;;17.80;8.55;;;7.70;99.90;;;;;;5006320;28;20182;-74
2022/11/05 04:01:54;;;;;;;14.73;8.13;;;7.70;99.90;;;;;;5006429;28;20679;-74
2022/11/05 04:04:20;;;;;;;21.88;8.98;;;7.80;99.90;;;;;;4989553;28;20050;-74
2022/11/05 04:14:57;;;;;;;17.00;8.63;;;7.70;99.90;;;;;;5007466;28;20468;-74
2022/11/05 04:17:23;;;;;;;19.30;8.73;;;7.70;99.90;;;;;;5007489;28;20049;-74
2022/11/05 04:25:20;;;;;;;18.58;7.75;;;7.70;99.90;;;;;;5006085;28;20096;-75
2022/11/05 04:27:46;;;;;;;13.80;7.88;;;7.70;99.90;;;;;;5012160;28;20060;-74
2022/11/05 04:30:18;;;;;;;18.58;8.18;;;7.80;99.90;;;;;;5009055;28;20042;-75
2022/11/05 04:33:04;;;;;;;17.10;7.72;;;7.80;99.90;;;;;;5003650;28;20487;-74
2022/11/05 04:35:36;;;;;;;19.50;8.40;;;7.80;99.90;;;;;;5015538;28;20116;-75
2022/11/05 04:38:03;;;;;;;16.00;6.93;;;7.80;99.90;;;;;;5026004;28;20038;-75
2022/11/05 04:40:29;;;;;;;15.15;7.75;;;7.70;99.90;;;;;;5009210;28;20057;-74
2022/11/05 04:42:55;;;;;;;16.17;7.57;;;7.80;99.90;;;;;;4993290;28;20058;-75
2022/11/05 04:45:22;;;;;;;19.08;8.27;;;7.70;99.90;;;;;;5008999;28;20054;-74
2022/11/05 04:47:48;;;;;;;20.27;7.55;;;7.70;99.90;;;;;;5009540;28;20080;-73
2022/11/05 04:50:15;;;;;;;18.25;7.68;;;7.60;99.90;;;;;;4992075;28;20045;-74
2022/11/05 04:52:41;;;;;;;15.35;7.30;;;7.50;99.90;;;;;;4986843;28;20834;-74
2022/11/05 04:55:07;;;;;;;15.55;7.22;;;7.50;99.90;;;;;;4991858;28;20041;-74
2022/11/05 04:57:33;;;;;;;13.60;7.18;;;7.50;99.90;;;;;;5009742;28;20058;-74
2022/11/05 04:59:58;;;;;;;16.52;7.28;;;7.50;99.90;;;;;;4992661;28;20100;-74
2022/11/05 05:02:24;;;;;;;13.90;7.57;;;7.50;99.90;;;;;;4992925;28;20071;-74
2022/11/05 05:04:50;;;;;;;14.80;6.88;;;7.40;99.90;;;;;;4976776;28;20050;-75
2022/11/05 05:07:16;;;;;;;15.77;7.05;;;7.40;99.90;;;;;;5009597;28;20125;-74
2022/11/05 05:09:41;;;;;;;20.25;7.45;;;7.40;99.90;;;;;;4990254;28;20045;-73
2022/11/05 05:12:07;;;;;;;16.98;7.53;;;7.40;99.90;;;;;;5024839;28;20129;-73
2022/11/05 05:14:33;;;;;;;21.23;8.35;;;7.40;99.90;;;;;;4991781;28;20053;-74
2022/11/05 05:16:59;;;;;;;20.25;7.93;;;7.30;99.90;;;;;;5007308;28;20409;-75
2022/11/05 05:19:24;;;;;;;20.00;7.75;;;7.20;99.90;;;;;;5025958;28;20063;-74
2022/11/05 05:21:50;;;;;;;19.15;7.93;;;7.10;99.90;;;;;;5009114;28;20065;-74
2022/11/05 05:24:17;;;;;;;16.95;6.38;;;7.00;99.90;;;;;;4991395;28;20046;-75
2022/11/05 05:26:47;;;;;;;19.38;6.70;;;7.10;99.90;;;;;;5024768;28;20041;-74
2022/11/05 05:29:13;;;;;;;18.52;7.97;;;7.10;99.90;;;;;;5007239;28;20358;-74
2022/11/05 05:31:39;;;;;;;17.45;7.43;;;7.00;99.90;;;;;;5008272;28;20076;-73
2022/11/05 05:34:06;;;;;;;20.10;7.45;;;7.00;99.90;;;;;;5008486;28;20037;-74
2022/11/05 05:36:32;;;;;;;16.08;6.72;;;7.10;99.90;;;;;;5022542;28;20078;-74
2022/11/05 05:38:59;;;;;;;21.05;8.48;;;7.10;99.90;;;;;;5014136;28;20062;-74
2022/11/05 05:41:25;;;;;;;20.67;7.47;;;7.00;99.90;;;;;;5014664;28;20046;-74
2022/11/05 05:43:50;;;;;;;19.33;8.43;;;7.10;99.90;;;;;;4996973;28;20041;-75
2022/11/05 05:46:17;;;;;;;20.60;7.82;;;7.10;99.90;;;;;;5010370;28;20069;-71
2022/11/05 05:48:43;;;;;;;21.83;8.38;;;7.10;99.90;;;;;;4980467;28;20120;-71
2022/11/05 05:51:09;;;;;;;14.00;8.05;;;7.10;99.90;;;;;;5002776;28;20042;-71
2022/11/05 05:53:35;;;;;;;15.23;7.40;;;7.20;99.90;;;;;;4998472;28;20050;-72
2022/11/05 05:56:01;;;;;;;21.00;9.95;;;7.10;99.90;;;;;;4992522;28;20045;-71
2022/11/05 05:58:31;;;;;;;19.58;9.93;;;7.10;99.90;;;;;;5024656;28;20046;-72
2022/11/05 06:01:04;;;;;;;19.70;8.32;;;7.10;99.90;;;;;;5022502;28;20468;-72
2022/11/05 06:03:29;;;;;;;19.50;8.98;;;7.00;99.90;;;;;;4985803;28;20050;-71
2022/11/05 06:06:02;;;;;;;20.63;9.15;;;6.90;99.90;;;;;;5013873;28;20055;-71
2022/11/05 06:08:28;;;;;;;23.50;8.75;;;6.90;99.90;;;;;;5006934;28;20042;-71
2022/11/05 06:10:54;;;;;;;18.13;9.43;;;6.90;99.90;;;;;;5007567;28;20081;-71
2022/11/05 06:13:19;;;;;;;19.67;9.18;;;6.80;99.90;;;;;;5003961;28;20506;-72
2022/11/05 06:15:45;;;;;;;24.58;10.50;;;6.80;99.90;;;;;;4985687;28;20110;-71
2022/11/05 06:18:11;;;;;;;30.30;10.25;;;6.80;99.90;;;;;;5011900;28;20038;-71
2022/11/05 06:20:40;;;;;;;22.55;10.48;;;6.70;99.90;;;;;;5004655;28;20073;-71
2022/11/05 06:23:06;;;;;;;19.98;9.95;;;6.80;99.90;;;;;;5019261;28;20057;-71
2022/11/05 06:25:33;;;;;;;18.58;9.25;;;6.70;99.90;;;;;;5000582;28;20046;-71
2022/11/05 06:27:59;;;;;;;21.58;10.15;;;6.70;99.90;;;;;;5003210;28;20061;-70
2022/11/05 06:30:27;;;;;;;17.60;9.65;;;6.60;99.90;;;;;;4990898;28;20041;-71
2022/11/05 06:32:53;;;;;;;18.80;9.77;;;6.60;99.90;;;;;;5001281;28;20077;-71
2022/11/05 06:35:18;;;;;;;18.10;9.23;;;6.50;99.90;;;;;;5006650;28;20814;-72
2022/11/05 06:37:44;;;;;;;16.83;9.50;;;6.50;99.90;;;;;;5002969;28;20080;-71
2022/11/05 06:40:13;;;;;;;20.27;10.25;;;6.40;99.90;;;;;;5002652;28;20549;-74
2022/11/05 06:42:39;;;;;;;23.38;10.55;;;6.50;99.90;;;;;;5021736;28;20548;-72
2022/11/05 06:45:05;;;;;;;17.25;10.00;;;6.40;99.90;;;;;;5006684;28;20176;-71
2022/11/05 06:47:31;;;;;;;20.83;9.70;;;6.40;99.90;;;;;;5006340;28;20479;-72
2022/11/05 06:49:57;;;;;;;19.85;10.00;;;6.40;99.90;;;;;;5006726;28;20038;-72
2022/11/05 06:52:26;;;;;;;19.23;10.18;;;6.40;99.90;;;;;;5005745;28;20432;-72
2022/11/05 06:54:52;;;;;;;20.35;10.00;;;6.40;99.90;;;;;;4989946;28;20057;-72
2022/11/05 06:57:17;;;;;;;18.50;10.02;;;6.40;99.90;;;;;;5021565;28;20042;-72
2022/11/05 06:59:43;;;;;;;20.10;9.93;;;6.40;99.90;;;;;;5004008;28;20117;-71
2022/11/05 07:02:10;;;;;;;21.90;10.18;;;6.40;99.90;;;;;;5028486;28;20054;-71
2022/11/05 07:04:37;;;;;;;21.30;9.13;;;6.50;99.90;;;;;;5002598;28;20124;-71
2022/11/05 07:07:03;;;;;;;19.98;9.75;;;6.40;99.90;;;;;;5005737;28;20046;-71
2022/11/05 07:09:28;;;;;;;20.70;9.60;;;6.50;99.90;;;;;;4996221;28;20046;-71
2022/11/05 07:11:54;;;;;;;19.63;9.30;;;6.50;99.90;;;;;;5006145;28;20380;-71
2022/11/05 07:14:20;;;;;;;20.05;10.07;;;6.50;99.90;;;;;;5003130;28;20077;-71
2022/11/05 07:16:46;;;;;;;21.92;10.60;;;6.50;99.90;;;;;;4993626;28;20046;-72
2022/11/05 07:19:12;;;;;;;20.23;9.85;;;6.50;99.90;;;;;;5009723;28;20080;-72
2022/11/05 07:21:37;;;;;;;18.08;9.77;;;6.60;99.90;;;;;;5005514;28;20156;-75
2022/11/05 07:24:03;;;;;;;19.83;9.73;;;6.60;99.90;;;;;;5014714;28;20334;-72
2022/11/05 07:26:29;;;;;;;24.13;10.88;;;6.60;99.90;;;;;;5001396;28;20053;-72
2022/11/05 07:28:58;;;;;;;27.90;10.52;;;6.70;99.90;;;;;;4988422;28;20468;-71
2022/11/05 07:31:23;;;;;;;25.50;11.30;;;6.60;99.90;;;;;;5001112;28;20131;-72
2022/11/05 07:33:52;;;;;;;27.40;10.55;;;6.70;99.90;;;;;;5007436;28;20760;-72
2022/11/05 07:36:18;;;;;;;19.92;10.27;;;6.70;99.90;;;;;;4993394;28;20053;-71
2022/11/05 07:38:43;;;;;;;19.63;9.70;;;6.80;99.90;;;;;;5039209;28;20046;-71
2022/11/05 07:41:09;;;;;;;19.52;9.48;;;6.80;99.90;;;;;;5008429;28;20061;-72
2022/11/05 07:43:35;;;;;;;18.85;9.60;;;6.90;99.90;;;;;;5006856;28;20375;-71
2022/11/05 07:46:07;;;;;;;21.15;10.05;;;6.90;99.90;;;;;;5002699;28;20053;-72
2022/11/05 07:48:33;;;;;;;20.13;9.45;;;7.00;99.90;;;;;;5024453;28;20046;-72
2022/11/05 07:50:58;;;;;;;24.08;9.93;;;7.00;99.90;;;;;;5005893;28;20038;-71
2022/11/05 07:53:24;;;;;;;22.92;9.90;;;7.00;99.90;;;;;;5007323;28;20049;-72
2022/11/05 07:55:51;;;;;;;20.30;9.52;;;7.10;99.90;;;;;;5017213;28;20049;-72
2022/11/05 07:58:17;;;;;;;17.55;9.35;;;7.10;99.90;;;;;;5008067;28;20054;-71
2022/11/05 08:00:43;;;;;;;25.50;9.77;;;7.20;99.90;;;;;;5007723;28;20046;-72
2022/11/05 08:03:13;;;;;;;24.15;9.10;;;7.30;99.90;;;;;;5036772;28;20057;-71
2022/11/05 08:05:42;;;;;;;17.38;8.70;;;7.30;99.90;;;;;;5026078;28;20050;-72
2022/11/05 08:08:07;;;;;;;;;;;7.30;99.90;;;;;;5024105;28;20141;-72
2022/11/05 08:10:34;;;;;;;22.42;9.23;;;7.40;99.90;;;;;;5008917;28;20000;-71
2022/11/05 08:12:59;;;;;;;20.50;10.18;;;7.50;99.90;;;;;;4992630;28;20061;-71
2022/11/05 08:15:25;;;;;;;19.80;9.88;;;7.60;99.90;;;;;;4991224;28;20795;-71
2022/11/05 08:18:04;;;;;;;24.15;14.13;;;7.60;99.90;;;;;;5009045;28;20103;-73
2022/11/05 08:20:30;;;;;;;20.60;9.45;;;7.80;99.90;;;;;;5011475;28;20116;-69
2022/11/05 08:22:56;;;;;;;24.30;8.90;;;7.80;99.90;;;;;;5007806;28;20053;-70
2022/11/05 08:25:22;;;;;;;20.75;8.38;;;8.00;99.90;;;;;;5012983;28;20088;-70
2022/11/05 08:28:15;;;;;;;24.15;9.23;;;8.10;99.90;;;;;;5010161;28;20054;-70
2022/11/05 08:30:41;;;;;;;21.98;8.77;;;8.20;99.90;;;;;;5008329;28;20069;-71
2022/11/05 08:33:09;;;;;;;23.63;8.63;;;8.40;99.90;;;;;;5024374;28;20128;-72
2022/11/05 08:35:35;;;;;;;18.60;8.50;;;8.30;99.90;;;;;;5011210;28;20064;-72
2022/11/05 08:38:02;;;;;;;18.63;8.70;;;8.40;99.90;;;;;;4995797;28;20046;-72
2022/11/05 08:40:33;;;;;;;19.33;8.52;;;8.30;99.90;;;;;;5010074;28;20103;-72
2022/11/05 08:43:01;;;;;;;22.90;8.20;;;8.40;99.90;;;;;;5011847;28;20042;-72
2022/11/05 08:45:27;;;;;;;22.10;8.77;;;8.50;99.90;;;;;;5012892;28;20073;-72
2022/11/05 08:48:04;;;;;;;23.27;8.55;;;8.40;99.90;;;;;;4991091;28;20510;-71
2022/11/05 08:50:30;;;;;;;21.85;9.27;;;8.50;99.90;;;;;;5012190;28;20050;-72
2022/11/05 08:52:56;;;;;;;21.67;9.30;;;8.50;99.90;;;;;;5011377;28;20046;-71
2022/11/05 08:55:21;;;;;;;18.23;8.77;;;8.50;99.90;;;;;;5012329;28;20490;-72
2022/11/05 08:57:47;;;;;;;22.75;8.60;;;8.60;99.90;;;;;;5012139;28;20112;-71
2022/11/05 09:00:16;;;;;;;19.17;8.98;;;8.60;99.90;;;;;;4991071;28;20475;-72
2022/11/05 09:02:42;;;;;;;17.63;8.75;;;8.60;99.90;;;;;;5027534;28;20194;-72
2022/11/05 09:05:08;;;;;;;19.42;9.18;;;8.70;99.90;;;;;;5005815;28;20057;-72
2022/11/05 09:07:33;;;;;;;19.30;8.60;;;8.80;99.90;;;;;;5028690;28;20050;-71
2022/11/05 09:09:59;;;;;;;22.05;8.73;;;8.80;99.90;;;;;;5008894;28;20121;-72
2022/11/05 09:12:25;;;;;;;18.27;7.95;;;8.90;99.90;;;;;;5012061;28;20048;-72
2022/11/05 09:14:50;;;;;;;13.98;7.80;;;9.00;99.90;;;;;;5010593;28;20045;-71
2022/11/05 09:17:17;;;;;;;17.05;7.90;;;9.10;99.90;;;;;;5016855;28;20046;-72
2022/11/05 09:19:43;;;;;;;19.95;8.18;;;9.20;99.90;;;;;;5011585;28;20364;-72
2022/11/05 09:22:11;;;;;;;20.02;8.55;;;9.20;99.90;;;;;;5025326;28;20050;-72
2022/11/05 09:24:38;;;;;;;22.17;8.07;;;9.40;99.90;;;;;;4993324;28;20097;-72
2022/11/05 09:27:09;;;;;;;21.30;8.23;;;9.30;99.90;;;;;;5008244;28;20038;-71
2022/11/05 09:29:35;;;;;;;20.30;8.88;;;9.30;99.90;;;;;;5011778;28;20053;-72
2022/11/05 09:32:01;;;;;;;17.45;7.72;;;9.40;99.90;;;;;;4991853;28;20163;-71
2022/11/05 09:34:26;;;;;;;13.85;7.90;;;9.50;99.90;;;;;;4991813;28;20132;-72
2022/11/05 09:36:52;;;;;;;19.75;8.43;;;9.60;99.90;;;;;;4995703;28;20054;-72
2022/11/05 09:39:18;;;;;;;31.70;12.25;;;9.60;99.90;;;;;;5018609;28;20480;-72
2022/11/05 09:41:44;;;;;;;15.95;8.02;;;9.60;99.90;;;;;;4991766;28;20058;-72
2022/11/05 09:44:15;;;;;;;17.02;8.18;;;9.80;99.90;;;;;;5005090;28;20057;-73
2022/11/05 09:46:44;;;;;;;17.00;8.30;;;9.90;99.90;;;;;;5005395;28;20362;-72
2022/11/05 09:49:34;;;;;;;19.63;8.38;;;10.10;99.90;;;;;;4974923;28;20065;-72
2022/11/05 09:52:00;;;;;;;17.30;8.20;;;10.30;99.90;;;;;;5026639;28;20425;-72
2022/11/05 09:54:28;;;;;;;13.65;7.43;;;10.40;99.90;;;;;;4994148;28;20057;-72
2022/11/05 09:56:54;;;;;;;17.10;6.85;;;10.50;99.90;;;;;;5010975;28;20147;-72
2022/11/05 09:59:22;;;;;;;14.35;7.53;;;10.50;99.90;;;;;;5024414;28;20464;-72
2022/11/05 10:01:47;;;;;;;15.55;6.80;;;10.60;99.90;;;;;;5010923;28;20487;-73
2022/11/05 10:04:19;;;;;;;19.60;8.15;;;10.80;99.90;;;;;;5010372;28;20117;-71
2022/11/05 10:06:53;;;;;;;15.80;7.43;;;10.90;99.90;;;;;;5010766;28;20038;-72
2022/11/05 10:09:44;;;;;;;16.58;6.80;;;10.80;99.90;;;;;;5011028;28;20046;-72
2022/11/05 10:12:09;;;;;;;16.27;7.45;;;10.90;99.90;;;;;;5024196;28;20119;-71
2022/11/05 10:14:44;;;;;;;18.67;7.07;;;11.10;99.90;;;;;;5041655;28;20053;-72
2022/11/05 10:17:23;;;;;;;13.57;6.50;;;11.20;99.90;;;;;;5011954;28;20050;-72
2022/11/05 10:19:50;;;;;;;13.60;6.70;;;11.40;99.90;;;;;;5011386;28;20049;-72
2022/11/05 10:22:17;;;;;;;13.32;6.80;;;11.50;99.90;;;;;;5010183;28;20041;-72
2022/11/05 10:24:45;;;;;;;14.05;6.13;;;11.30;99.90;;;;;;5010529;28;20050;-73
2022/11/05 10:27:17;;;;;;;12.70;6.65;;;11.60;99.90;;;;;;5010273;28;20112;-71
2022/11/05 10:29:43;;;;;;;13.38;6.20;;;11.70;99.90;;;;;;5008486;28;20606;-72
2022/11/05 10:32:09;;;;;;;14.40;6.65;;;11.90;99.90;;;;;;5020324;28;20046;-73
2022/11/05 10:34:36;;;;;;;14.95;6.70;;;12.20;99.90;;;;;;5024831;28;20133;-71
2022/11/05 10:37:02;;;;;;;14.65;6.07;;;12.30;99.90;;;;;;5023895;28;20614;-72
2022/11/05 10:39:28;;;;;;;15.40;7.20;;;12.50;99.90;;;;;;5024042;28;20060;-72
2022/11/05 10:42:07;;;;;;;16.38;6.22;;;13.10;99.90;;;;;;5010467;28;20426;-72
2022/11/05 10:44:40;;;;;;;15.05;7.03;;;12.90;99.90;;;;;;5010063;28;20045;-72
2022/11/05 10:47:30;;;;;;;13.25;6.70;;;12.50;99.90;;;;;;5024611;28;20049;-71
2022/11/05 10:50:00;;;;;;;11.55;6.63;;;12.30;99.90;;;;;;5009723;28;20471;-71
2022/11/05 10:52:32;;;;;;;13.50;6.65;;;12.90;99.90;;;;;;5022994;28;20050;-71
2022/11/05 10:54:59;;;;;;;10.95;5.88;;;13.10;99.90;;;;;;5019738;28;20048;-72
2022/11/05 10:57:34;;;;;;;16.42;6.72;;;13.20;99.90;;;;;;4991996;28;20088;-73
2022/11/05 11:00:15;;;;;;;12.57;6.40;;;12.40;99.90;;;;;;5009924;28;20064;-71
2022/11/05 11:02:52;;;;;;;13.57;6.47;;;12.00;99.90;;;;;;5009677;28;20080;-73
2022/11/05 11:05:38;;;;;;;16.63;6.18;;;11.60;99.90;;;;;;5025712;28;20084;-73
2022/11/05 11:08:10;;;;;;;11.50;6.00;;;12.30;99.90;;;;;;5025812;28;20427;-72
2022/11/05 11:10:49;;;;;;;11.57;6.38;;;12.50;99.90;;;;;;5026067;28;20054;-72
2022/11/05 11:13:20;;;;;;;13.18;5.28;;;11.90;99.90;;;;;;5010130;28;20889;-73
2022/11/05 11:15:45;;;;;;;16.48;6.43;;;11.70;99.90;;;;;;5007176;28;20102;-72
2022/11/05 11:18:29;;;;;;;13.13;6.28;;;11.40;99.90;;;;;;5009628;28;20943;-73
2022/11/05 11:21:18;;;;;;;11.35;5.57;;;11.40;99.90;;;;;;5021411;28;20054;-73
2022/11/05 11:23:53;;;;;;;12.00;5.82;;;12.50;99.90;;;;;;5011568;28;20076;-71
2022/11/05 11:26:20;;;;;;;11.65;6.10;;;13.50;99.90;;;;;;5026082;28;20126;-71
2022/11/05 11:29:10;;;;;;;13.30;5.65;;;13.20;99.90;;;;;;5008401;28;20744;-69
2022/11/05 11:31:37;;;;;;;12.52;4.30;;;12.70;99.90;;;;;;5024271;28;20042;-70
2022/11/05 11:34:25;;;;;;;10.98;4.82;;;13.10;99.90;;;;;;5009557;28;20053;-71
2022/11/05 11:36:53;;;;;;;13.02;4.43;;;13.20;99.90;;;;;;4987512;28;20145;-70
2022/11/05 11:39:21;;;;;;;;;;;13.50;99.70;;;;;;5008801;28;20041;-71
2022/11/05 11:41:54;;;;;;;10.68;4.15;;;14.40;98.50;;;;;;4989960;28;19921;-72
2022/11/05 11:44:27;;;;;;;11.60;4.60;;;14.20;97.40;;;;;;5024910;28;20542;-71
2022/11/05 11:46:55;;;;;;;8.85;3.92;;;14.40;97.10;;;;;;5024509;28;20038;-71
2022/11/05 11:49:40;;;;;;;11.07;3.60;;;14.20;97.40;;;;;;5007609;28;20846;-70
2022/11/05 11:52:27;;;;;;;9.65;3.78;;;13.20;98.50;;;;;;5020002;28;20053;-75
2022/11/05 11:55:06;;;;;;;10.10;3.33;;;12.80;99.20;;;;;;5032393;28;20438;-74
2022/11/05 11:57:52;;;;;;;11.15;3.28;;;12.80;99.10;;;;;;5005651;28;20088;-73
2022/11/05 12:00:19;;;;;;;11.68;3.60;;;12.30;99.80;;;;;;5006987;28;20113;-75
2022/11/05 12:03:16;;;;;;;13.05;3.67;;;12.10;99.90;;;;;;5012528;28;20046;-75
2022/11/05 12:06:30;;;;;;;7.85;2.95;;;11.80;99.90;;;;;;5040894;28;20042;-74
2022/11/05 12:09:16;;;;;;;9.65;3.20;;;11.60;99.90;;;;;;5001628;28;20043;-75
2022/11/05 12:12:09;;;;;;;9.38;3.60;;;11.80;99.90;;;;;;5029397;28;20895;-75
2022/11/05 12:14:44;;;;;;;10.57;3.53;;;13.10;99.70;;;;;;5005565;28;20053;-75
2022/11/05 12:17:31;;;;;;;9.20;3.33;;;13.80;98.60;;;;;;5025959;28;20046;-75
2022/11/05 12:20:15;;;;;;;10.75;3.63;;;13.80;96.50;;;;;;5028069;28;20375;-76
2022/11/05 12:23:04;;;;;;;11.07;4.10;;;14.00;96.40;;;;;;5012900;28;20077;-76
2022/11/05 12:25:55;;;;;;;7.63;3.88;;;14.20;96.00;;;;;;5023358;28;20049;-70
2022/11/05 12:28:54;;;;;;;9.23;4.13;;;14.50;95.90;;;;;;5010354;28;20061;-71
2022/11/05 12:31:26;;;;;;;8.02;4.35;;;15.40;93.80;;;;;;5009998;28;20132;-70
2022/11/05 12:33:57;;;;;;;8.10;3.70;;;15.00;94.30;;;;;;5011621;28;20041;-70
2022/11/05 12:36:35;;;;;;;9.45;3.85;;;14.80;94.20;;;;;;5012793;28;20049;-70
2022/11/05 12:39:33;;;;;;;11.52;5.05;;;15.40;94.60;;;;;;5012106;28;20109;-70
2022/11/05 12:42:01;;;;;;;6.97;3.72;;;15.20;93.50;;;;;;5009009;28;20092;-70
2022/11/05 12:44:50;;;;;;;7.50;3.80;;;15.00;93.10;;;;;;5010782;28;20048;-70
2022/11/05 12:47:36;;;;;;;9.10;4.03;;;15.20;93.50;;;;;;5012088;28;20472;-70
2022/11/05 12:50:20;;;;;;;10.75;4.68;;;15.00;93.20;;;;;;5010703;28;20076;-70
2022/11/05 12:53:08;;;;;;;10.27;4.40;;;15.00;92.30;;;;;;5012726;28;20057;-70
2022/11/05 12:55:38;;;;;;;7.00;3.80;;;15.10;92.20;;;;;;5022389;28;20080;-70
2022/11/05 12:58:18;;;;;;;7.68;4.13;;;15.00;91.80;;;;;;5011510;28;20764;-70
2022/11/05 13:00:46;;;;;;;6.45;3.30;;;15.00;92.20;;;;;;5023468;28;20046;-70
2022/11/05 13:03:21;;;;;;;5.47;3.28;;;15.10;91.90;;;;;;5010761;28;20049;-70
2022/11/05 13:05:50;;;;;;;9.32;3.05;;;15.40;91.30;;;;;;5012319;28;20046;-73
2022/11/05 13:08:24;;;;;;;6.95;3.58;;;15.30;91.90;;;;;;5009512;28;20046;-73
2022/11/05 13:11:10;;;;;;;6.35;3.30;;;14.60;90.70;;;;;;5008340;28;20113;-73
2022/11/05 13:13:38;;;;;;;6.68;3.15;;;14.30;92.70;;;;;;5030243;28;20057;-73
2022/11/05 13:16:31;;;;;;;7.72;4.15;;;14.30;92.30;;;;;;4995704;28;20046;-72
2022/11/05 13:19:18;;;;;;;7.15;3.72;;;14.20;93.60;;;;;;5041772;28;20107;-72
2022/11/05 13:21:46;;;;;;;6.85;3.33;;;14.10;93.50;;;;;;4997734;28;20042;-71
2022/11/05 13:24:23;;;;;;;8.45;3.22;;;13.60;93.40;;;;;;5010263;28;20648;-71
2022/11/05 13:27:07;;;;;;;5.25;3.05;;;13.40;94.10;;;;;;4994790;28;20128;-72
2022/11/05 13:29:49;;;;;;;8.00;3.25;;;13.60;93.70;;;;;;5009241;28;20066;-72
2022/11/05 13:32:30;;;;;;;5.85;2.72;;;13.40;94.40;;;;;;4991775;28;20046;-73
2022/11/05 13:35:00;;;;;;;6.30;3.20;;;13.10;94.70;;;;;;5021890;28;20128;-72
2022/11/05 13:40:51;;;;;;;7.78;3.05;;;12.60;96.10;;;;;;5011172;28;20049;-73
2022/11/05 13:43:31;;;;;;;7.05;3.20;;;12.60;95.60;;;;;;5005554;28;20077;-75
2022/11/05 13:46:35;;;;;;;5.68;2.85;;;13.10;95.00;;;;;;5009918;28;20153;-73
2022/11/05 13:49:30;;;;;;;8.50;2.97;;;13.00;95.00;;;;;;4988704;28;20153;-71
2022/11/05 13:52:02;;;;;;;6.60;2.58;;;13.20;95.20;;;;;;4972319;28;20121;-73
2022/11/05 13:54:37;;;;;;;6.28;2.75;;;13.20;94.80;;;;;;4989085;28;20041;-72